STW274 USCC-LTAI
Flight info
| Callsign | STW274 |
|---|---|
| Flight time | N/A |
| Altitude | 34000 |
| Route | GERSI2Y GERSI T797 MGR L992 BODSI N37 AKT N154 ITAKA DCT LURIS/N0456F340 N37 BT/N0457F360 N37 SARPI UN37 TBN UW706 SIV UA285 SELVI/N0457F350 UA285 MUT/N0457F360 UR55 ADBEL |
| Aircraft | A21N/M-SDE3FGHIRWY/LB1 |
Departure
| Time | 2026-04-25 20:48 |
|---|---|
| Airport | Kurchatov Chelyabinsk International Airport (USCC) |
Arrival
| Time | N/A |
|---|---|
| Airport | Antalya International Airport (LTAI) |
| Time | Latitude | Longitude | Altitude | Speed | Heading |
|---|---|---|---|---|---|
| 2026-04-25 19:57 | 55.29906 | 61.50876 | 745 ft | 0 kts | 194° |
| 2026-04-25 20:32 | 55.29920 | 61.50883 | 745 ft | 2 kts | 196° |
| 2026-04-25 20:32 | 55.29935 | 61.50889 | 745 ft | 2 kts | 192° |
| 2026-04-25 20:32 | 55.29949 | 61.50895 | 746 ft | 2 kts | 194° |
| 2026-04-25 20:33 | 55.29963 | 61.50906 | 746 ft | 2 kts | 224° |
| 2026-04-25 20:33 | 55.29972 | 61.50927 | 746 ft | 2 kts | 249° |
| 2026-04-25 20:33 | 55.29974 | 61.50953 | 746 ft | 2 kts | 289° |
| 2026-04-25 20:33 | 55.29970 | 61.50970 | 746 ft | 2 kts | 286° |
| 2026-04-25 20:34 | 55.29968 | 61.50990 | 746 ft | 0 kts | 280° |
| 2026-04-25 20:37 | 55.29968 | 61.50984 | 746 ft | 1 kts | 280° |
| 2026-04-25 20:37 | 55.29977 | 61.50913 | 746 ft | 9 kts | 282° |
| 2026-04-25 20:37 | 55.29996 | 61.50749 | 746 ft | 17 kts | 281° |
| 2026-04-25 20:38 | 55.30022 | 61.50546 | 749 ft | 14 kts | 284° |
| 2026-04-25 20:38 | 55.30043 | 61.50388 | 751 ft | 12 kts | 282° |
| 2026-04-25 20:38 | 55.30061 | 61.50239 | 752 ft | 11 kts | 282° |
| 2026-04-25 20:38 | 55.30076 | 61.50116 | 754 ft | 9 kts | 283° |
| 2026-04-25 20:39 | 55.30090 | 61.50012 | 756 ft | 7 kts | 286° |
| 2026-04-25 20:39 | 55.30126 | 61.49985 | 757 ft | 6 kts | 1° |
| 2026-04-25 20:39 | 55.30173 | 61.50001 | 757 ft | 7 kts | 12° |
| 2026-04-25 20:39 | 55.30208 | 61.50013 | 756 ft | 8 kts | 12° |
| 2026-04-25 20:40 | 55.30287 | 61.50041 | 756 ft | 7 kts | 12° |
| 2026-04-25 20:40 | 55.30311 | 61.50050 | 756 ft | 2 kts | 12° |
| 2026-04-25 20:40 | 55.30327 | 61.50055 | 756 ft | 2 kts | 12° |
| 2026-04-25 20:40 | 55.30360 | 61.50068 | 757 ft | 6 kts | 12° |
| 2026-04-25 20:41 | 55.30408 | 61.50077 | 757 ft | 6 kts | 342° |
| 2026-04-25 20:41 | 55.30431 | 61.50005 | 757 ft | 7 kts | 285° |
| 2026-04-25 20:41 | 55.30442 | 61.49930 | 758 ft | 5 kts | 284° |
| 2026-04-25 20:41 | 55.30450 | 61.49873 | 759 ft | 5 kts | 283° |
| 2026-04-25 20:42 | 55.30462 | 61.49780 | 760 ft | 10 kts | 283° |
| 2026-04-25 20:42 | 55.30483 | 61.49617 | 760 ft | 16 kts | 282° |
| 2026-04-25 20:42 | 55.30510 | 61.49411 | 762 ft | 16 kts | 284° |
| 2026-04-25 20:42 | 55.30534 | 61.49230 | 763 ft | 14 kts | 284° |
| 2026-04-25 20:43 | 55.30558 | 61.49057 | 763 ft | 14 kts | 283° |
| 2026-04-25 20:43 | 55.30580 | 61.48885 | 763 ft | 14 kts | 283° |
| 2026-04-25 20:43 | 55.30603 | 61.48713 | 761 ft | 13 kts | 284° |
| 2026-04-25 20:43 | 55.30626 | 61.48555 | 761 ft | 13 kts | 284° |
| 2026-04-25 20:44 | 55.30647 | 61.48394 | 760 ft | 13 kts | 283° |
| 2026-04-25 20:44 | 55.30664 | 61.48262 | 760 ft | 7 kts | 283° |
| 2026-04-25 20:44 | 55.30680 | 61.48172 | 759 ft | 8 kts | 296° |
| 2026-04-25 20:44 | 55.30736 | 61.48150 | 757 ft | 9 kts | 14° |
| 2026-04-25 20:45 | 55.30738 | 61.48151 | 757 ft | 0 kts | 14° |
| 2026-04-25 20:46 | 55.30759 | 61.48160 | 756 ft | 4 kts | 13° |
| 2026-04-25 20:46 | 55.30804 | 61.48179 | 754 ft | 8 kts | 14° |
| 2026-04-25 20:46 | 55.30862 | 61.48218 | 754 ft | 9 kts | 52° |
| 2026-04-25 20:46 | 55.30864 | 61.48282 | 755 ft | 0 kts | 103° |
| 2026-04-25 20:47 | 55.30864 | 61.48289 | 755 ft | 5 kts | 103° |
| 2026-04-25 20:47 | 55.30794 | 61.48782 | 761 ft | 76 kts | 104° |
| 2026-04-25 20:47 | 55.30617 | 61.50066 | 757 ft | 139 kts | 104° |
| 2026-04-25 20:48 | 55.30339 | 61.52033 | 753 ft | 189 kts | 107° |
| 2026-04-25 20:48 | 55.29987 | 61.54258 | 1274 ft | 191 kts | 112° |
| 2026-04-25 20:48 | 55.29446 | 61.56391 | 1843 ft | 194 kts | 128° |
| 2026-04-25 20:48 | 55.28617 | 61.58199 | 2417 ft | 189 kts | 144° |
| 2026-04-25 20:49 | 55.27453 | 61.59095 | 2737 ft | 188 kts | 187° |
| 2026-04-25 20:49 | 55.26288 | 61.58202 | 3025 ft | 190 kts | 231° |
| 2026-04-25 20:49 | 55.25528 | 61.56221 | 3325 ft | 206 kts | 238° |
| 2026-04-25 20:49 | 55.24680 | 61.54068 | 3644 ft | 225 kts | 235° |
| 2026-04-25 20:50 | 55.23682 | 61.51814 | 4080 ft | 240 kts | 232° |
| 2026-04-25 20:50 | 55.22609 | 61.49556 | 4719 ft | 245 kts | 231° |
| 2026-04-25 20:50 | 55.21494 | 61.47301 | 5448 ft | 247 kts | 230° |
| 2026-04-25 20:50 | 55.20354 | 61.45050 | 6173 ft | 249 kts | 230° |
| 2026-04-25 20:51 | 55.19203 | 61.42811 | 6838 ft | 251 kts | 230° |
| 2026-04-25 20:51 | 55.18034 | 61.40553 | 7499 ft | 253 kts | 229° |
| 2026-04-25 20:51 | 55.16843 | 61.38271 | 8181 ft | 254 kts | 229° |
| 2026-04-25 20:51 | 55.15653 | 61.35998 | 8822 ft | 256 kts | 229° |
| 2026-04-25 20:52 | 55.14458 | 61.33728 | 9444 ft | 258 kts | 227° |
| 2026-04-25 20:52 | 55.13643 | 61.32181 | 9876 ft | 259 kts | 227° |
| 2026-04-25 20:52 | 55.12006 | 61.29081 | 10671 ft | 263 kts | 227° |
| 2026-04-25 20:52 | 55.10749 | 61.26704 | 10966 ft | 276 kts | 227° |
| 2026-04-25 20:53 | 55.09412 | 61.24180 | 11239 ft | 289 kts | 227° |
| 2026-04-25 20:53 | 55.08022 | 61.21559 | 11514 ft | 303 kts | 227° |
| 2026-04-25 20:53 | 55.06566 | 61.18816 | 11767 ft | 316 kts | 227° |
| 2026-04-25 20:53 | 55.05041 | 61.15947 | 12033 ft | 329 kts | 227° |
| 2026-04-25 20:54 | 55.03470 | 61.12996 | 12266 ft | 341 kts | 227° |
| 2026-04-25 20:54 | 55.01834 | 61.09926 | 12501 ft | 353 kts | 227° |
| 2026-04-25 20:54 | 55.00131 | 61.06735 | 12772 ft | 363 kts | 227° |
| 2026-04-25 20:54 | 54.98403 | 61.03500 | 13264 ft | 366 kts | 227° |
| 2026-04-25 20:55 | 54.96682 | 61.00283 | 13808 ft | 367 kts | 227° |
| 2026-04-25 20:55 | 54.94955 | 60.97059 | 14340 ft | 368 kts | 227° |
| 2026-04-25 20:55 | 54.93195 | 60.93772 | 14833 ft | 370 kts | 226° |
| 2026-04-25 20:55 | 54.91451 | 60.90524 | 15373 ft | 370 kts | 226° |
| 2026-04-25 20:56 | 54.89695 | 60.87255 | 15902 ft | 371 kts | 226° |
| 2026-04-25 20:56 | 54.87928 | 60.83976 | 16269 ft | 376 kts | 226° |
| 2026-04-25 20:56 | 54.86140 | 60.80663 | 16588 ft | 381 kts | 226° |
| 2026-04-25 20:56 | 54.84339 | 60.77328 | 17066 ft | 382 kts | 226° |
| 2026-04-25 20:57 | 54.82537 | 60.73995 | 17550 ft | 382 kts | 226° |
| 2026-04-25 20:57 | 54.80732 | 60.70660 | 18033 ft | 381 kts | 226° |
| 2026-04-25 20:57 | 54.78900 | 60.67283 | 18503 ft | 382 kts | 226° |
| 2026-04-25 20:57 | 54.77097 | 60.63966 | 18885 ft | 384 kts | 226° |
| 2026-04-25 20:58 | 54.75257 | 60.60587 | 19254 ft | 386 kts | 225° |
| 2026-04-25 20:58 | 54.73382 | 60.57245 | 19546 ft | 389 kts | 223° |
| 2026-04-25 20:58 | 54.71404 | 60.54041 | 19846 ft | 392 kts | 222° |
| 2026-04-25 20:58 | 54.69413 | 60.50851 | 20212 ft | 393 kts | 222° |
| 2026-04-25 20:59 | 54.67416 | 60.47642 | 20565 ft | 395 kts | 222° |
| 2026-04-25 20:59 | 54.65397 | 60.44402 | 20914 ft | 396 kts | 221° |
| 2026-04-25 20:59 | 54.63408 | 60.41216 | 21254 ft | 397 kts | 221° |
| 2026-04-25 20:59 | 54.61373 | 60.37970 | 21603 ft | 398 kts | 221° |
| 2026-04-25 21:00 | 54.59355 | 60.34754 | 21905 ft | 399 kts | 221° |
| 2026-04-25 21:00 | 54.58658 | 60.33645 | 22016 ft | 400 kts | 220° |
| 2026-04-25 21:00 | 54.53268 | 60.25080 | 23229 ft | 394 kts | 220° |
| 2026-04-25 21:01 | 54.51265 | 60.21905 | 23661 ft | 392 kts | 220° |
| 2026-04-25 21:01 | 54.49269 | 60.18749 | 24091 ft | 390 kts | 220° |
| 2026-04-25 21:01 | 54.47281 | 60.15609 | 24512 ft | 388 kts | 219° |
| 2026-04-25 21:01 | 54.45325 | 60.12526 | 24876 ft | 386 kts | 220° |
| 2026-04-25 21:02 | 54.43320 | 60.09373 | 25177 ft | 386 kts | 220° |
| 2026-04-25 21:02 | 54.41351 | 60.06279 | 25436 ft | 386 kts | 220° |
| 2026-04-25 21:02 | 54.39335 | 60.03140 | 25719 ft | 386 kts | 219° |
| 2026-04-25 21:02 | 54.37283 | 60.00203 | 25993 ft | 385 kts | 217° |
| 2026-04-25 21:03 | 54.35190 | 59.97441 | 26241 ft | 385 kts | 216° |
| 2026-04-25 21:03 | 54.33053 | 59.94601 | 26474 ft | 386 kts | 216° |
| 2026-04-25 21:03 | 54.30947 | 59.91795 | 26680 ft | 386 kts | 217° |
| 2026-04-25 21:03 | 54.28833 | 59.88987 | 26888 ft | 387 kts | 217° |
| 2026-04-25 21:04 | 54.26719 | 59.86190 | 27065 ft | 388 kts | 217° |
| 2026-04-25 21:04 | 54.24586 | 59.83373 | 27239 ft | 389 kts | 217° |
| 2026-04-25 21:04 | 54.22440 | 59.80549 | 27408 ft | 390 kts | 217° |
| 2026-04-25 21:04 | 54.20316 | 59.77759 | 27578 ft | 390 kts | 217° |
| 2026-04-25 21:05 | 54.18164 | 59.74936 | 27757 ft | 391 kts | 217° |
| 2026-04-25 21:05 | 54.15989 | 59.72089 | 27925 ft | 392 kts | 217° |
| 2026-04-25 21:05 | 54.13838 | 59.69278 | 28106 ft | 392 kts | 217° |
| 2026-04-25 21:05 | 54.11674 | 59.66454 | 28277 ft | 393 kts | 217° |
| 2026-04-25 21:06 | 54.09516 | 59.63642 | 28425 ft | 394 kts | 217° |
| 2026-04-25 21:06 | 54.07340 | 59.60809 | 28564 ft | 395 kts | 217° |
| 2026-04-25 21:06 | 54.05174 | 59.57993 | 28706 ft | 396 kts | 217° |
| 2026-04-25 21:07 | 54.00795 | 59.52306 | 28993 ft | 397 kts | 217° |
| 2026-04-25 21:07 | 53.98607 | 59.49472 | 29159 ft | 397 kts | 218° |
| 2026-04-25 21:07 | 53.96407 | 59.46623 | 29317 ft | 398 kts | 218° |
| 2026-04-25 21:07 | 53.94241 | 59.43824 | 29439 ft | 399 kts | 218° |
| 2026-04-25 21:08 | 53.92033 | 59.40976 | 29548 ft | 400 kts | 218° |
| 2026-04-25 21:08 | 53.89807 | 59.38108 | 29680 ft | 401 kts | 218° |
| 2026-04-25 21:08 | 53.87606 | 59.35289 | 29835 ft | 401 kts | 218° |
| 2026-04-25 21:08 | 53.85371 | 59.32438 | 29972 ft | 402 kts | 217° |
| 2026-04-25 21:09 | 53.80899 | 59.26740 | 30209 ft | 404 kts | 217° |
| 2026-04-25 21:09 | 53.78657 | 59.23887 | 30332 ft | 405 kts | 217° |
| 2026-04-25 21:09 | 53.76421 | 59.21043 | 30475 ft | 405 kts | 217° |
| 2026-04-25 21:10 | 53.74173 | 59.18189 | 30633 ft | 405 kts | 217° |
| 2026-04-25 21:10 | 53.71934 | 59.15353 | 30757 ft | 406 kts | 217° |
| 2026-04-25 21:10 | 53.67416 | 59.09637 | 30960 ft | 408 kts | 218° |
| 2026-04-25 21:11 | 53.65139 | 59.06763 | 31067 ft | 409 kts | 218° |
| 2026-04-25 21:11 | 53.62876 | 59.03908 | 31182 ft | 410 kts | 218° |
| 2026-04-25 21:11 | 53.60611 | 59.01053 | 31317 ft | 410 kts | 218° |
| 2026-04-25 21:11 | 53.58310 | 58.98159 | 31454 ft | 410 kts | 218° |
| 2026-04-25 21:12 | 53.56021 | 58.95285 | 31582 ft | 410 kts | 218° |
| 2026-04-25 21:12 | 53.53734 | 58.92415 | 31707 ft | 410 kts | 218° |
| 2026-04-25 21:12 | 53.51436 | 58.89538 | 31817 ft | 411 kts | 218° |
| 2026-04-25 21:12 | 53.49900 | 58.87618 | 31882 ft | 411 kts | 218° |
| 2026-04-25 21:13 | 53.46818 | 58.83800 | 31999 ft | 413 kts | 217° |
| 2026-04-25 21:13 | 53.44421 | 58.81112 | 32099 ft | 414 kts | 214° |
| 2026-04-25 21:13 | 53.39426 | 58.76418 | 32273 ft | 417 kts | 208° |
| 2026-04-25 21:14 | 53.34093 | 58.72572 | 32432 ft | 420 kts | 203° |
| 2026-04-25 21:14 | 53.28526 | 58.69517 | 32619 ft | 421 kts | 200° |
| 2026-04-25 21:15 | 53.22989 | 58.66540 | 32787 ft | 422 kts | 201° |
| 2026-04-25 21:15 | 53.17401 | 58.63555 | 32947 ft | 423 kts | 201° |
| 2026-04-25 21:16 | 53.11786 | 58.60564 | 33081 ft | 424 kts | 201° |
| 2026-04-25 21:16 | 53.06182 | 58.57594 | 33190 ft | 427 kts | 201° |
| 2026-04-25 21:17 | 53.00540 | 58.54612 | 33349 ft | 427 kts | 201° |
| 2026-04-25 21:17 | 52.94879 | 58.51629 | 33509 ft | 428 kts | 201° |
| 2026-04-25 21:18 | 52.89219 | 58.48656 | 33668 ft | 428 kts | 201° |
| 2026-04-25 21:18 | 52.83564 | 58.45692 | 33778 ft | 429 kts | 201° |
| 2026-04-25 21:19 | 52.77886 | 58.42725 | 33805 ft | 431 kts | 201° |
| 2026-04-25 21:19 | 52.72181 | 58.39751 | 33799 ft | 431 kts | 201° |
| 2026-04-25 21:20 | 52.67420 | 58.37276 | 33795 ft | 431 kts | 201° |
| 2026-04-25 21:20 | 52.60770 | 58.33827 | 33806 ft | 432 kts | 200° |
| 2026-04-25 21:21 | 52.55052 | 58.30896 | 33812 ft | 433 kts | 200° |
| 2026-04-25 21:21 | 52.49310 | 58.28011 | 33819 ft | 433 kts | 200° |
| 2026-04-25 21:22 | 52.43539 | 58.25114 | 33827 ft | 433 kts | 200° |
| 2026-04-25 21:22 | 52.37817 | 58.22246 | 33836 ft | 433 kts | 200° |
| 2026-04-25 21:23 | 52.32038 | 58.19355 | 33840 ft | 433 kts | 200° |
| 2026-04-25 21:23 | 52.26292 | 58.16489 | 33848 ft | 434 kts | 200° |
| 2026-04-25 21:24 | 52.20524 | 58.13621 | 33853 ft | 434 kts | 200° |
| 2026-04-25 21:24 | 52.14766 | 58.10764 | 33855 ft | 436 kts | 200° |
| 2026-04-25 21:25 | 52.08979 | 58.07899 | 33852 ft | 436 kts | 200° |
| 2026-04-25 21:25 | 52.03177 | 58.05035 | 33846 ft | 437 kts | 200° |
| 2026-04-25 21:26 | 51.97409 | 58.02200 | 33847 ft | 437 kts | 200° |
| 2026-04-25 21:26 | 51.91623 | 57.99365 | 33852 ft | 436 kts | 200° |
| 2026-04-25 21:27 | 51.85797 | 57.96515 | 33860 ft | 435 kts | 200° |
| 2026-04-25 21:27 | 51.80016 | 57.93691 | 33861 ft | 437 kts | 200° |
| 2026-04-25 21:28 | 51.74207 | 57.90864 | 33861 ft | 437 kts | 200° |
| 2026-04-25 21:28 | 51.68400 | 57.88044 | 33865 ft | 438 kts | 200° |
| 2026-04-25 21:29 | 51.62601 | 57.85236 | 33872 ft | 438 kts | 200° |
| 2026-04-25 21:29 | 51.56784 | 57.82425 | 33874 ft | 438 kts | 200° |
| 2026-04-25 21:30 | 51.50968 | 57.79624 | 33876 ft | 438 kts | 200° |
| 2026-04-25 21:30 | 51.46100 | 57.77284 | 33883 ft | 437 kts | 200° |
| 2026-04-25 21:31 | 51.39302 | 57.74024 | 33890 ft | 437 kts | 200° |
| 2026-04-25 21:31 | 51.33494 | 57.71247 | 33895 ft | 439 kts | 200° |
| 2026-04-25 21:32 | 51.27686 | 57.68484 | 33898 ft | 439 kts | 200° |
| 2026-04-25 21:32 | 51.21852 | 57.65717 | 33906 ft | 439 kts | 200° |
| 2026-04-25 21:33 | 51.15996 | 57.62944 | 33909 ft | 439 kts | 200° |
| 2026-04-25 21:33 | 51.10174 | 57.60195 | 33912 ft | 439 kts | 200° |
| 2026-04-25 21:34 | 51.04315 | 57.57431 | 33918 ft | 439 kts | 200° |
| 2026-04-25 21:34 | 50.98485 | 57.54689 | 33920 ft | 440 kts | 200° |
| 2026-04-25 21:35 | 50.92608 | 57.51931 | 33919 ft | 440 kts | 200° |
| 2026-04-25 21:35 | 50.86769 | 57.49193 | 33920 ft | 439 kts | 201° |
| 2026-04-25 21:36 | 50.80956 | 57.46207 | 33924 ft | 439 kts | 202° |
| 2026-04-25 21:36 | 50.75193 | 57.43200 | 33925 ft | 439 kts | 202° |
| 2026-04-25 21:37 | 50.70335 | 57.40685 | 33921 ft | 439 kts | 202° |
| 2026-04-25 21:37 | 50.63582 | 57.37206 | 33926 ft | 439 kts | 202° |
| 2026-04-25 21:38 | 50.57782 | 57.34229 | 33935 ft | 440 kts | 201° |
| 2026-04-25 21:38 | 50.51971 | 57.31256 | 33939 ft | 441 kts | 201° |
| 2026-04-25 21:39 | 50.46174 | 57.28296 | 33946 ft | 441 kts | 201° |
| 2026-04-25 21:39 | 50.40344 | 57.25330 | 33946 ft | 441 kts | 202° |
| 2026-04-25 21:40 | 50.34489 | 57.22355 | 33945 ft | 441 kts | 201° |
| 2026-04-25 21:40 | 50.28667 | 57.19407 | 33946 ft | 441 kts | 202° |
| 2026-04-25 21:41 | 50.22924 | 57.16215 | 33953 ft | 440 kts | 204° |
| 2026-04-25 21:41 | 50.17199 | 57.12874 | 33949 ft | 440 kts | 204° |
| 2026-04-25 21:42 | 50.11463 | 57.09535 | 33947 ft | 441 kts | 204° |
| 2026-04-25 21:42 | 50.05750 | 57.06210 | 33954 ft | 441 kts | 205° |
| 2026-04-25 21:43 | 50.00024 | 57.02885 | 33962 ft | 441 kts | 204° |
| 2026-04-25 21:43 | 49.94244 | 56.99536 | 33965 ft | 441 kts | 205° |
| 2026-04-25 21:44 | 49.88511 | 56.96221 | 33975 ft | 442 kts | 205° |
| 2026-04-25 21:45 | 49.79892 | 56.91254 | 33982 ft | 443 kts | 205° |
| 2026-04-25 21:45 | 49.74118 | 56.87936 | 33986 ft | 443 kts | 205° |
| 2026-04-25 21:46 | 49.68350 | 56.84633 | 33984 ft | 443 kts | 205° |
| 2026-04-25 21:46 | 49.62623 | 56.81353 | 33983 ft | 442 kts | 205° |
| 2026-04-25 21:47 | 49.56859 | 56.78050 | 33983 ft | 442 kts | 205° |
| 2026-04-25 21:47 | 49.51105 | 56.74757 | 33985 ft | 443 kts | 205° |
| 2026-04-25 21:48 | 49.45329 | 56.71461 | 33988 ft | 443 kts | 205° |
| 2026-04-25 21:48 | 49.39580 | 56.68186 | 33996 ft | 443 kts | 205° |
| 2026-04-25 21:49 | 49.33784 | 56.64896 | 33992 ft | 443 kts | 205° |
| 2026-04-25 21:49 | 49.28031 | 56.61636 | 33994 ft | 443 kts | 205° |
| 2026-04-25 21:50 | 49.22270 | 56.58383 | 33995 ft | 443 kts | 205° |
| 2026-04-25 21:50 | 49.16493 | 56.55125 | 34005 ft | 444 kts | 205° |
| 2026-04-25 21:51 | 49.10718 | 56.51878 | 34002 ft | 443 kts | 205° |
| 2026-04-25 21:51 | 49.04951 | 56.48644 | 34010 ft | 443 kts | 205° |
| 2026-04-25 21:52 | 48.99198 | 56.45425 | 34006 ft | 442 kts | 205° |
| 2026-04-25 21:52 | 48.93440 | 56.42210 | 34014 ft | 443 kts | 205° |
| 2026-04-25 21:53 | 48.87659 | 56.38991 | 34012 ft | 444 kts | 205° |
| 2026-04-25 21:53 | 48.81856 | 56.35767 | 34015 ft | 444 kts | 205° |
| 2026-04-25 21:54 | 48.76059 | 56.32554 | 34020 ft | 444 kts | 205° |
| 2026-04-25 21:54 | 48.70305 | 56.29375 | 34032 ft | 444 kts | 205° |
| 2026-04-25 21:55 | 48.64520 | 56.26183 | 34036 ft | 444 kts | 205° |
| 2026-04-25 21:55 | 48.58710 | 56.22988 | 34035 ft | 444 kts | 205° |
| 2026-04-25 21:56 | 48.52926 | 56.19812 | 34046 ft | 445 kts | 205° |
| 2026-04-25 21:56 | 48.47125 | 56.16641 | 34040 ft | 444 kts | 205° |
| 2026-04-25 21:57 | 48.41337 | 56.13483 | 34042 ft | 443 kts | 205° |
| 2026-04-25 21:57 | 48.35553 | 56.10334 | 34056 ft | 444 kts | 205° |
| 2026-04-25 21:58 | 48.29751 | 56.07177 | 34051 ft | 444 kts | 205° |
| 2026-04-25 21:58 | 48.23947 | 56.04030 | 34053 ft | 444 kts | 205° |
| 2026-04-25 21:59 | 48.18144 | 56.00889 | 34058 ft | 445 kts | 205° |
| 2026-04-25 21:59 | 48.12356 | 55.97761 | 34066 ft | 444 kts | 205° |
| 2026-04-25 22:00 | 48.03672 | 55.93088 | 34057 ft | 444 kts | 205° |
| 2026-04-25 22:00 | 47.97864 | 55.89977 | 34065 ft | 444 kts | 205° |
| 2026-04-25 22:01 | 47.92076 | 55.86888 | 34093 ft | 444 kts | 206° |
| 2026-04-25 22:01 | 47.87227 | 55.84302 | 34080 ft | 444 kts | 206° |
| 2026-04-25 22:02 | 47.80477 | 55.80705 | 34093 ft | 444 kts | 206° |
| 2026-04-25 22:02 | 47.74684 | 55.77627 | 34079 ft | 443 kts | 206° |
| 2026-04-25 22:03 | 47.68875 | 55.74546 | 34080 ft | 442 kts | 206° |
| 2026-04-25 22:03 | 47.63108 | 55.71496 | 34090 ft | 443 kts | 206° |
| 2026-04-25 22:04 | 47.57307 | 55.68433 | 34088 ft | 443 kts | 206° |
| 2026-04-25 22:04 | 47.51521 | 55.65389 | 34104 ft | 443 kts | 206° |
| 2026-04-25 22:05 | 47.45746 | 55.62360 | 34104 ft | 444 kts | 206° |
| 2026-04-25 22:05 | 47.39920 | 55.59315 | 34091 ft | 442 kts | 207° |
| 2026-04-25 22:06 | 47.34154 | 55.56304 | 34087 ft | 442 kts | 207° |
| 2026-04-25 22:06 | 47.28365 | 55.53286 | 34086 ft | 442 kts | 207° |
| 2026-04-25 22:07 | 47.23534 | 55.50774 | 34095 ft | 442 kts | 207° |
| 2026-04-25 22:07 | 47.16806 | 55.47281 | 34112 ft | 442 kts | 207° |
| 2026-04-25 22:08 | 47.11009 | 55.44282 | 34117 ft | 442 kts | 207° |
| 2026-04-25 22:08 | 47.05231 | 55.41297 | 34093 ft | 442 kts | 207° |
| 2026-04-25 22:09 | 46.99482 | 55.38334 | 34121 ft | 440 kts | 207° |
| 2026-04-25 22:09 | 46.93698 | 55.35358 | 34115 ft | 440 kts | 207° |
| 2026-04-25 22:10 | 46.87920 | 55.32393 | 34139 ft | 440 kts | 206° |
| 2026-04-25 22:10 | 46.82172 | 55.29451 | 34128 ft | 441 kts | 207° |
| 2026-04-25 22:11 | 46.76385 | 55.26500 | 34127 ft | 440 kts | 207° |
| 2026-04-25 22:11 | 46.70629 | 55.23574 | 34138 ft | 440 kts | 207° |
| 2026-04-25 22:12 | 46.64843 | 55.20637 | 34130 ft | 439 kts | 207° |
| 2026-04-25 22:12 | 46.60075 | 55.18221 | 34133 ft | 438 kts | 207° |
| 2026-04-25 22:13 | 46.53357 | 55.14822 | 34138 ft | 437 kts | 207° |
| 2026-04-25 22:13 | 46.47617 | 55.11925 | 34135 ft | 438 kts | 207° |
| 2026-04-25 22:14 | 46.41879 | 55.09036 | 34136 ft | 438 kts | 207° |
| 2026-04-25 22:14 | 46.36160 | 55.06165 | 34142 ft | 437 kts | 207° |
| 2026-04-25 22:15 | 46.30428 | 55.03288 | 34138 ft | 435 kts | 207° |
| 2026-04-25 22:16 | 46.21868 | 54.99009 | 34141 ft | 434 kts | 207° |
| 2026-04-25 22:16 | 46.16199 | 54.96183 | 34136 ft | 433 kts | 207° |
| 2026-04-25 22:17 | 46.10509 | 54.93352 | 34144 ft | 434 kts | 207° |
| 2026-04-25 22:17 | 46.04813 | 54.90524 | 34144 ft | 433 kts | 207° |
| 2026-04-25 22:18 | 45.99135 | 54.87711 | 34149 ft | 432 kts | 207° |
| 2026-04-25 22:18 | 45.93483 | 54.84916 | 34155 ft | 431 kts | 207° |
| 2026-04-25 22:19 | 45.87803 | 54.82112 | 34155 ft | 431 kts | 207° |
| 2026-04-25 22:19 | 45.82169 | 54.79339 | 34156 ft | 428 kts | 207° |
| 2026-04-25 22:20 | 45.76545 | 54.76582 | 34162 ft | 428 kts | 207° |
| 2026-04-25 22:20 | 45.70913 | 54.73824 | 34168 ft | 427 kts | 207° |
| 2026-04-25 22:21 | 45.65319 | 54.71088 | 34165 ft | 426 kts | 207° |
| 2026-04-25 22:21 | 45.59721 | 54.68357 | 34173 ft | 426 kts | 207° |
| 2026-04-25 22:22 | 45.54145 | 54.65642 | 34188 ft | 425 kts | 207° |
| 2026-04-25 22:22 | 45.48577 | 54.62939 | 34191 ft | 423 kts | 207° |
| 2026-04-25 22:23 | 45.42980 | 54.60227 | 34189 ft | 423 kts | 207° |
| 2026-04-25 22:23 | 45.37459 | 54.57555 | 34179 ft | 422 kts | 207° |
| 2026-04-25 22:24 | 45.31897 | 54.54871 | 34179 ft | 422 kts | 207° |
| 2026-04-25 22:24 | 45.26349 | 54.52195 | 34188 ft | 422 kts | 207° |
| 2026-04-25 22:25 | 45.20797 | 54.49524 | 34194 ft | 422 kts | 207° |
| 2026-04-25 22:25 | 45.15275 | 54.46872 | 34197 ft | 419 kts | 207° |
| 2026-04-25 22:26 | 45.09770 | 54.44231 | 34189 ft | 419 kts | 207° |
| 2026-04-25 22:26 | 45.04250 | 54.41589 | 34195 ft | 417 kts | 207° |
| 2026-04-25 22:27 | 44.98759 | 54.38968 | 34191 ft | 416 kts | 207° |
| 2026-04-25 22:27 | 44.93267 | 54.36341 | 34187 ft | 416 kts | 209° |
| 2026-04-25 22:28 | 44.88251 | 54.32615 | 34192 ft | 403 kts | 222° |
| 2026-04-25 22:28 | 44.84189 | 54.27385 | 34189 ft | 392 kts | 234° |
| 2026-04-25 22:29 | 44.81232 | 54.21100 | 34197 ft | 386 kts | 246° |
| 2026-04-25 22:29 | 44.79125 | 54.14173 | 34201 ft | 384 kts | 250° |
| 2026-04-25 22:30 | 44.76102 | 54.03770 | 34194 ft | 385 kts | 250° |
| 2026-04-25 22:30 | 44.74423 | 53.97996 | 34195 ft | 385 kts | 250° |
| 2026-04-25 22:31 | 44.72054 | 53.89869 | 34193 ft | 385 kts | 250° |
| 2026-04-25 22:31 | 44.70027 | 53.82927 | 34192 ft | 386 kts | 250° |
| 2026-04-25 22:32 | 44.67998 | 53.76001 | 34194 ft | 385 kts | 250° |
| 2026-04-25 22:32 | 44.65951 | 53.69033 | 34192 ft | 386 kts | 250° |
| 2026-04-25 22:33 | 44.63917 | 53.62115 | 34200 ft | 385 kts | 250° |
| 2026-04-25 22:33 | 44.61876 | 53.55199 | 34205 ft | 386 kts | 250° |
| 2026-04-25 22:34 | 44.59817 | 53.48249 | 34207 ft | 386 kts | 250° |
| 2026-04-25 22:34 | 44.57762 | 53.41325 | 34207 ft | 386 kts | 250° |
| 2026-04-25 22:35 | 44.55692 | 53.34375 | 34212 ft | 387 kts | 249° |
| 2026-04-25 22:35 | 44.53621 | 53.27441 | 34209 ft | 387 kts | 249° |
| 2026-04-25 22:36 | 44.51548 | 53.20504 | 34217 ft | 387 kts | 249° |
| 2026-04-25 22:36 | 44.49458 | 53.13541 | 34213 ft | 388 kts | 249° |
| 2026-04-25 22:37 | 44.47367 | 53.06593 | 34215 ft | 388 kts | 249° |
| 2026-04-25 22:37 | 44.45279 | 52.99666 | 34220 ft | 387 kts | 249° |
| 2026-04-25 22:38 | 44.43188 | 52.92751 | 34218 ft | 388 kts | 249° |
| 2026-04-25 22:38 | 44.41083 | 52.85824 | 34223 ft | 388 kts | 249° |
| 2026-04-25 22:39 | 44.38968 | 52.78871 | 34220 ft | 388 kts | 249° |
| 2026-04-25 22:39 | 44.36860 | 52.71962 | 34223 ft | 389 kts | 249° |
| 2026-04-25 22:40 | 44.34741 | 52.65031 | 34218 ft | 389 kts | 249° |
| 2026-04-25 22:40 | 44.32618 | 52.58102 | 34219 ft | 390 kts | 249° |
| 2026-04-25 22:41 | 44.30492 | 52.51183 | 34225 ft | 389 kts | 249° |
| 2026-04-25 22:41 | 44.28354 | 52.44241 | 34221 ft | 390 kts | 249° |
| 2026-04-25 22:42 | 44.26210 | 52.37297 | 34218 ft | 390 kts | 249° |
| 2026-04-25 22:42 | 44.24065 | 52.30370 | 34212 ft | 390 kts | 248° |
| 2026-04-25 22:43 | 44.21919 | 52.23457 | 34211 ft | 390 kts | 248° |
| 2026-04-25 22:43 | 44.19823 | 52.16461 | 34214 ft | 390 kts | 249° |
| 2026-04-25 22:44 | 44.17807 | 52.09489 | 34220 ft | 391 kts | 249° |
| 2026-04-25 22:44 | 44.15771 | 52.02478 | 34225 ft | 392 kts | 249° |
| 2026-04-25 22:45 | 44.13720 | 51.95448 | 34222 ft | 393 kts | 249° |
| 2026-04-25 22:45 | 44.11664 | 51.88425 | 34223 ft | 392 kts | 249° |
| 2026-04-25 22:46 | 44.09607 | 51.81425 | 34224 ft | 393 kts | 249° |
| 2026-04-25 22:46 | 44.07549 | 51.74435 | 34226 ft | 392 kts | 249° |
| 2026-04-25 22:47 | 44.05487 | 51.67453 | 34228 ft | 392 kts | 249° |
| 2026-04-25 22:47 | 44.03418 | 51.60468 | 34233 ft | 392 kts | 249° |
| 2026-04-25 22:48 | 44.01334 | 51.53457 | 34235 ft | 392 kts | 249° |
| 2026-04-25 22:48 | 43.99263 | 51.46505 | 34230 ft | 392 kts | 249° |
| 2026-04-25 22:49 | 43.97185 | 51.39547 | 34235 ft | 393 kts | 249° |
| 2026-04-25 22:49 | 43.95084 | 51.32520 | 34236 ft | 393 kts | 248° |
| 2026-04-25 22:50 | 43.92996 | 51.25568 | 34235 ft | 392 kts | 248° |
| 2026-04-25 22:50 | 43.90896 | 51.18584 | 34236 ft | 393 kts | 249° |
| 2026-04-25 22:51 | 43.89142 | 51.11485 | 34237 ft | 392 kts | 254° |
| 2026-04-25 22:51 | 43.87965 | 51.04141 | 34237 ft | 393 kts | 260° |
| 2026-04-25 22:52 | 43.87385 | 50.96587 | 34235 ft | 394 kts | 266° |
| 2026-04-25 22:52 | 43.87336 | 50.90298 | 34236 ft | 394 kts | 269° |
| 2026-04-25 22:53 | 43.87373 | 50.81508 | 34233 ft | 393 kts | 269° |
| 2026-04-25 22:53 | 43.87408 | 50.73955 | 34227 ft | 393 kts | 269° |
| 2026-04-25 22:54 | 43.87441 | 50.66385 | 34225 ft | 393 kts | 269° |
| 2026-04-25 22:54 | 43.87468 | 50.58873 | 34219 ft | 393 kts | 269° |
| 2026-04-25 22:55 | 43.87493 | 50.51311 | 34220 ft | 393 kts | 269° |
| 2026-04-25 22:55 | 43.87511 | 50.43756 | 34218 ft | 393 kts | 269° |
| 2026-04-25 22:56 | 43.87526 | 50.36215 | 34214 ft | 393 kts | 269° |
| 2026-04-25 22:56 | 43.87535 | 50.28670 | 34214 ft | 394 kts | 268° |
| 2026-04-25 22:57 | 43.87539 | 50.21123 | 34216 ft | 393 kts | 268° |
| 2026-04-25 22:57 | 43.87540 | 50.13583 | 34224 ft | 393 kts | 268° |
| 2026-04-25 22:58 | 43.87535 | 50.06017 | 34226 ft | 394 kts | 268° |
| 2026-04-25 22:58 | 43.87525 | 49.98455 | 34226 ft | 394 kts | 268° |
| 2026-04-25 22:59 | 43.87509 | 49.90886 | 34223 ft | 394 kts | 268° |
| 2026-04-25 22:59 | 43.87489 | 49.83335 | 34223 ft | 394 kts | 268° |
| 2026-04-25 23:00 | 43.87463 | 49.75733 | 34222 ft | 393 kts | 268° |
| 2026-04-25 23:00 | 43.87434 | 49.68198 | 34220 ft | 392 kts | 268° |
| 2026-04-25 23:01 | 43.87328 | 49.60665 | 34217 ft | 391 kts | 265° |
| 2026-04-25 23:01 | 43.86631 | 49.53269 | 34216 ft | 391 kts | 259° |
| 2026-04-25 23:02 | 43.85262 | 49.46015 | 34215 ft | 391 kts | 253° |
| 2026-04-25 23:02 | 43.83224 | 49.39011 | 34214 ft | 392 kts | 246° |
| 2026-04-25 23:03 | 43.80797 | 49.32287 | 34216 ft | 393 kts | 245° |
| 2026-04-25 23:03 | 43.78347 | 49.25559 | 34211 ft | 394 kts | 245° |
| 2026-04-25 23:04 | 43.76283 | 49.19918 | 34211 ft | 394 kts | 245° |
| 2026-04-25 23:04 | 43.73399 | 49.12068 | 34210 ft | 394 kts | 245° |
| 2026-04-25 23:05 | 43.70922 | 49.05344 | 34211 ft | 394 kts | 245° |
| 2026-04-25 23:05 | 43.68434 | 48.98613 | 34211 ft | 394 kts | 245° |
| 2026-04-25 23:06 | 43.65933 | 48.91861 | 34209 ft | 395 kts | 245° |
| 2026-04-25 23:06 | 43.63440 | 48.85151 | 34206 ft | 394 kts | 245° |
| 2026-04-25 23:07 | 43.60940 | 48.78437 | 34208 ft | 394 kts | 245° |
| 2026-04-25 23:07 | 43.58452 | 48.71769 | 34207 ft | 394 kts | 245° |
| 2026-04-25 23:08 | 43.55942 | 48.65060 | 34206 ft | 394 kts | 245° |
| 2026-04-25 23:08 | 43.53433 | 48.58366 | 34205 ft | 393 kts | 245° |
| 2026-04-25 23:09 | 43.50925 | 48.51697 | 34205 ft | 393 kts | 245° |
| 2026-04-25 23:09 | 43.48418 | 48.45043 | 34201 ft | 394 kts | 245° |
| 2026-04-25 23:10 | 43.45895 | 48.38359 | 34202 ft | 394 kts | 245° |
| 2026-04-25 23:10 | 43.43381 | 48.31720 | 34196 ft | 394 kts | 244° |
| 2026-04-25 23:11 | 43.40857 | 48.25068 | 34192 ft | 394 kts | 244° |
| 2026-04-25 23:11 | 43.38313 | 48.18383 | 34191 ft | 395 kts | 244° |
| 2026-04-25 23:12 | 43.35766 | 48.11696 | 34187 ft | 395 kts | 244° |
| 2026-04-25 23:12 | 43.33229 | 48.05059 | 34186 ft | 395 kts | 244° |
| 2026-04-25 23:13 | 43.30667 | 47.98373 | 34183 ft | 395 kts | 244° |
| 2026-04-25 23:13 | 43.28117 | 47.91731 | 34182 ft | 396 kts | 244° |
| 2026-04-25 23:14 | 43.25551 | 47.85063 | 34181 ft | 396 kts | 244° |
| 2026-04-25 23:14 | 43.22977 | 47.78389 | 34181 ft | 396 kts | 244° |
| 2026-04-25 23:15 | 43.20406 | 47.71739 | 34181 ft | 396 kts | 244° |
| 2026-04-25 23:15 | 43.17831 | 47.65098 | 34180 ft | 397 kts | 244° |
| 2026-04-25 23:16 | 43.15238 | 47.58422 | 34180 ft | 397 kts | 244° |
| 2026-04-25 23:16 | 43.12641 | 47.51751 | 34180 ft | 398 kts | 244° |
| 2026-04-25 23:17 | 43.10038 | 47.45082 | 34180 ft | 398 kts | 244° |
| 2026-04-25 23:17 | 43.07446 | 47.38456 | 34177 ft | 398 kts | 244° |
| 2026-04-25 23:18 | 43.04827 | 47.31777 | 34163 ft | 399 kts | 243° |
| 2026-04-25 23:18 | 43.02193 | 47.25069 | 34152 ft | 400 kts | 243° |
| 2026-04-25 23:19 | 42.99574 | 47.18422 | 34171 ft | 401 kts | 243° |
| 2026-04-25 23:19 | 42.96920 | 47.11706 | 34166 ft | 401 kts | 243° |
| 2026-04-25 23:20 | 42.94268 | 47.05009 | 34157 ft | 401 kts | 243° |
| 2026-04-25 23:20 | 42.91630 | 46.98359 | 34162 ft | 401 kts | 243° |
| 2026-04-25 23:21 | 42.88976 | 46.91681 | 34162 ft | 402 kts | 243° |
| 2026-04-25 23:21 | 42.86309 | 46.84992 | 34159 ft | 402 kts | 243° |
| 2026-04-25 23:22 | 42.83642 | 46.78318 | 34172 ft | 401 kts | 243° |
| 2026-04-25 23:23 | 42.79645 | 46.68338 | 34173 ft | 399 kts | 243° |
| 2026-04-25 23:23 | 42.76987 | 46.61725 | 34179 ft | 400 kts | 243° |
| 2026-04-25 23:24 | 42.74325 | 46.55114 | 34185 ft | 400 kts | 243° |
| 2026-04-25 23:24 | 42.71643 | 46.48470 | 34173 ft | 400 kts | 243° |
| 2026-04-25 23:25 | 42.68956 | 46.41825 | 34179 ft | 400 kts | 243° |
| 2026-04-25 23:25 | 42.66283 | 46.35232 | 34177 ft | 401 kts | 243° |
| 2026-04-25 23:26 | 42.63576 | 46.28574 | 34178 ft | 401 kts | 243° |
| 2026-04-25 23:26 | 42.60896 | 46.21993 | 34198 ft | 400 kts | 243° |
| 2026-04-25 23:27 | 42.58206 | 46.15400 | 34214 ft | 400 kts | 243° |
| 2026-04-25 23:27 | 42.55498 | 46.08783 | 34204 ft | 401 kts | 243° |
| 2026-04-25 23:28 | 42.52794 | 46.02184 | 34192 ft | 400 kts | 243° |
| 2026-04-25 23:28 | 42.50110 | 45.95650 | 34197 ft | 399 kts | 243° |
| 2026-04-25 23:29 | 42.47414 | 45.89108 | 34209 ft | 398 kts | 243° |
| 2026-04-25 23:29 | 42.44842 | 45.82453 | 34223 ft | 398 kts | 246° |
| 2026-04-25 23:30 | 42.42750 | 45.75553 | 34225 ft | 397 kts | 251° |
| 2026-04-25 23:30 | 42.41159 | 45.68402 | 34221 ft | 397 kts | 256° |
| 2026-04-25 23:31 | 42.40008 | 45.61100 | 34220 ft | 397 kts | 258° |
| 2026-04-25 23:31 | 42.38907 | 45.53770 | 34222 ft | 398 kts | 258° |
| 2026-04-25 23:32 | 42.37803 | 45.46447 | 34218 ft | 398 kts | 258° |
| 2026-04-25 23:32 | 42.36700 | 45.39141 | 34222 ft | 398 kts | 259° |
| 2026-04-25 23:33 | 42.35589 | 45.31799 | 34220 ft | 397 kts | 258° |
| 2026-04-25 23:33 | 42.34480 | 45.24507 | 34197 ft | 397 kts | 258° |
| 2026-04-25 23:34 | 42.33367 | 45.17223 | 34202 ft | 398 kts | 258° |
| 2026-04-25 23:34 | 42.32250 | 45.09932 | 34209 ft | 398 kts | 258° |
| 2026-04-25 23:35 | 42.31120 | 45.02610 | 34205 ft | 399 kts | 258° |
| 2026-04-25 23:35 | 42.29987 | 44.95287 | 34208 ft | 399 kts | 258° |
| 2026-04-25 23:36 | 42.28845 | 44.87957 | 34211 ft | 399 kts | 258° |
| 2026-04-25 23:36 | 42.27695 | 44.80597 | 34217 ft | 400 kts | 258° |
| 2026-04-25 23:37 | 42.26551 | 44.73302 | 34207 ft | 399 kts | 258° |
| 2026-04-25 23:37 | 42.25391 | 44.65945 | 34199 ft | 399 kts | 258° |
| 2026-04-25 23:38 | 42.24234 | 44.58627 | 34184 ft | 400 kts | 258° |
| 2026-04-25 23:38 | 42.23068 | 44.51299 | 34197 ft | 400 kts | 258° |
| 2026-04-25 23:39 | 42.21908 | 44.44032 | 34196 ft | 400 kts | 258° |
| 2026-04-25 23:39 | 42.20733 | 44.36706 | 34187 ft | 400 kts | 258° |
| 2026-04-25 23:40 | 42.19553 | 44.29385 | 34190 ft | 400 kts | 257° |
| 2026-04-25 23:40 | 42.18367 | 44.22053 | 34200 ft | 400 kts | 257° |
| 2026-04-25 23:41 | 42.17179 | 44.14730 | 34193 ft | 401 kts | 257° |
| 2026-04-25 23:41 | 42.15986 | 44.07424 | 34202 ft | 401 kts | 257° |
| 2026-04-25 23:42 | 42.14782 | 44.00077 | 34180 ft | 401 kts | 257° |
| 2026-04-25 23:42 | 42.13589 | 43.92812 | 34188 ft | 400 kts | 257° |
| 2026-04-25 23:43 | 42.12378 | 43.85479 | 34179 ft | 400 kts | 257° |
| 2026-04-25 23:43 | 42.11169 | 43.78196 | 34185 ft | 400 kts | 257° |
| 2026-04-25 23:44 | 42.09954 | 43.70899 | 34184 ft | 401 kts | 257° |
| 2026-04-25 23:44 | 42.08633 | 43.63608 | 34182 ft | 401 kts | 254° |
| 2026-04-25 23:45 | 42.07022 | 43.56461 | 34174 ft | 401 kts | 253° |
| 2026-04-25 23:45 | 42.05387 | 43.49246 | 34172 ft | 401 kts | 253° |
| 2026-04-25 23:46 | 42.03765 | 43.42115 | 34178 ft | 401 kts | 253° |
| 2026-04-25 23:46 | 42.02132 | 43.34956 | 34169 ft | 401 kts | 252° |
| 2026-04-25 23:47 | 42.00493 | 43.27803 | 34172 ft | 400 kts | 252° |
| 2026-04-25 23:47 | 41.98847 | 43.20638 | 34156 ft | 401 kts | 252° |
| 2026-04-25 23:48 | 41.97200 | 43.13491 | 34161 ft | 401 kts | 252° |
| 2026-04-25 23:48 | 41.95550 | 43.06354 | 34160 ft | 402 kts | 252° |
| 2026-04-25 23:49 | 41.93884 | 42.99175 | 34167 ft | 402 kts | 252° |
| 2026-04-25 23:49 | 41.92222 | 42.92028 | 34171 ft | 402 kts | 252° |
| 2026-04-25 23:50 | 41.90552 | 42.84877 | 34186 ft | 402 kts | 252° |
| 2026-04-25 23:50 | 41.88849 | 42.77758 | 34174 ft | 402 kts | 252° |
| 2026-04-25 23:51 | 41.87118 | 42.70610 | 34178 ft | 402 kts | 252° |
| 2026-04-25 23:51 | 41.85403 | 42.63545 | 34176 ft | 401 kts | 252° |
| 2026-04-25 23:52 | 41.83669 | 42.56409 | 34172 ft | 402 kts | 252° |
| 2026-04-25 23:52 | 41.81936 | 42.49285 | 34170 ft | 403 kts | 252° |
| 2026-04-25 23:53 | 41.80194 | 42.42164 | 34163 ft | 403 kts | 252° |
| 2026-04-25 23:53 | 41.78451 | 42.35051 | 34165 ft | 404 kts | 252° |
| 2026-04-25 23:54 | 41.76704 | 42.27943 | 34163 ft | 405 kts | 251° |
| 2026-04-25 23:54 | 41.74939 | 42.20763 | 34147 ft | 406 kts | 251° |
| 2026-04-25 23:55 | 41.73163 | 42.13587 | 34140 ft | 406 kts | 251° |
| 2026-04-25 23:55 | 41.71401 | 42.06484 | 34143 ft | 406 kts | 251° |
| 2026-04-25 23:56 | 41.69619 | 41.99318 | 34136 ft | 406 kts | 251° |
| 2026-04-25 23:56 | 41.67846 | 41.92193 | 34123 ft | 406 kts | 251° |
| 2026-04-25 23:57 | 41.66062 | 41.85051 | 34092 ft | 408 kts | 251° |
| 2026-04-25 23:57 | 41.64259 | 41.77851 | 34079 ft | 408 kts | 252° |
| 2026-04-25 23:58 | 41.62456 | 41.70664 | 34064 ft | 409 kts | 251° |
| 2026-04-25 23:58 | 41.60651 | 41.63509 | 34067 ft | 409 kts | 251° |
| 2026-04-25 23:59 | 41.58535 | 41.56453 | 34060 ft | 410 kts | 248° |
| 2026-04-25 23:59 | 41.56316 | 41.49468 | 34068 ft | 411 kts | 248° |
| 2026-04-26 00:00 | 41.54084 | 41.42495 | 34071 ft | 411 kts | 247° |
| 2026-04-26 00:00 | 41.51798 | 41.35475 | 34060 ft | 412 kts | 247° |
| 2026-04-26 00:01 | 41.49523 | 41.28509 | 34066 ft | 413 kts | 246° |
| 2026-04-26 00:01 | 41.47229 | 41.21487 | 34064 ft | 413 kts | 246° |
| 2026-04-26 00:02 | 41.44935 | 41.14475 | 34069 ft | 413 kts | 246° |
| 2026-04-26 00:02 | 41.42645 | 41.07502 | 34066 ft | 413 kts | 246° |
| 2026-04-26 00:03 | 41.40331 | 41.00499 | 34063 ft | 414 kts | 246° |
| 2026-04-26 00:03 | 41.38016 | 40.93498 | 34059 ft | 414 kts | 246° |
| 2026-04-26 00:04 | 41.35706 | 40.86526 | 34053 ft | 414 kts | 246° |
| 2026-04-26 00:04 | 41.33385 | 40.79544 | 34054 ft | 413 kts | 246° |
| 2026-04-26 00:05 | 41.31063 | 40.72573 | 34056 ft | 413 kts | 246° |
| 2026-04-26 00:05 | 41.28745 | 40.65632 | 34049 ft | 413 kts | 246° |
| 2026-04-26 00:06 | 41.26407 | 40.58642 | 34053 ft | 413 kts | 246° |
| 2026-04-26 00:06 | 41.24078 | 40.51698 | 34045 ft | 413 kts | 246° |
| 2026-04-26 00:07 | 41.21736 | 40.44736 | 34049 ft | 414 kts | 246° |
| 2026-04-26 00:07 | 41.19395 | 40.37794 | 34044 ft | 415 kts | 246° |
| 2026-04-26 00:08 | 41.17029 | 40.30791 | 34038 ft | 416 kts | 245° |
| 2026-04-26 00:08 | 41.14658 | 40.23782 | 34033 ft | 417 kts | 245° |
| 2026-04-26 00:09 | 41.12299 | 40.16830 | 34032 ft | 416 kts | 245° |
| 2026-04-26 00:09 | 41.09912 | 40.09836 | 34025 ft | 415 kts | 245° |
| 2026-04-26 00:10 | 41.07542 | 40.02905 | 34027 ft | 415 kts | 245° |
| 2026-04-26 00:10 | 41.05155 | 39.95943 | 34022 ft | 415 kts | 245° |
| 2026-04-26 00:11 | 41.02775 | 39.89007 | 34021 ft | 415 kts | 245° |
| 2026-04-26 00:11 | 41.00395 | 39.82091 | 34021 ft | 416 kts | 245° |
| 2026-04-26 00:12 | 40.97823 | 39.75252 | 34019 ft | 417 kts | 243° |
| 2026-04-26 00:12 | 40.95146 | 39.68438 | 34015 ft | 417 kts | 243° |
| 2026-04-26 00:13 | 40.92473 | 39.61644 | 34014 ft | 418 kts | 243° |
| 2026-04-26 00:13 | 40.89799 | 39.54864 | 34026 ft | 418 kts | 243° |
| 2026-04-26 00:14 | 40.87123 | 39.48099 | 34044 ft | 418 kts | 243° |
| 2026-04-26 00:14 | 40.84429 | 39.41300 | 34052 ft | 418 kts | 243° |
| 2026-04-26 00:15 | 40.81726 | 39.34493 | 34077 ft | 418 kts | 242° |
| 2026-04-26 00:15 | 40.79019 | 39.27690 | 34086 ft | 418 kts | 242° |
| 2026-04-26 00:16 | 40.76317 | 39.20913 | 34103 ft | 419 kts | 242° |
| 2026-04-26 00:16 | 40.73613 | 39.14149 | 34106 ft | 420 kts | 242° |
| 2026-04-26 00:17 | 40.70892 | 39.07358 | 34095 ft | 421 kts | 242° |
| 2026-04-26 00:17 | 40.68150 | 39.00528 | 34101 ft | 421 kts | 242° |
| 2026-04-26 00:18 | 40.65414 | 38.93733 | 34104 ft | 422 kts | 242° |
| 2026-04-26 00:18 | 40.62664 | 38.86931 | 34107 ft | 422 kts | 242° |
| 2026-04-26 00:19 | 40.59892 | 38.80117 | 34105 ft | 422 kts | 242° |
| 2026-04-26 00:19 | 40.57138 | 38.73351 | 34109 ft | 422 kts | 242° |
| 2026-04-26 00:20 | 40.54367 | 38.66556 | 34110 ft | 423 kts | 242° |
| 2026-04-26 00:20 | 40.51590 | 38.59765 | 34117 ft | 423 kts | 242° |
| 2026-04-26 00:21 | 40.48767 | 38.53017 | 34117 ft | 423 kts | 241° |
| 2026-04-26 00:21 | 40.45871 | 38.46299 | 34124 ft | 423 kts | 241° |
| 2026-04-26 00:22 | 40.42978 | 38.39579 | 34109 ft | 423 kts | 241° |
| 2026-04-26 00:22 | 40.40083 | 38.32856 | 34115 ft | 424 kts | 240° |
| 2026-04-26 00:23 | 40.37223 | 38.26172 | 34109 ft | 424 kts | 242° |
| 2026-04-26 00:23 | 40.34489 | 38.19318 | 34115 ft | 425 kts | 242° |
| 2026-04-26 00:24 | 40.31725 | 38.12469 | 34117 ft | 425 kts | 241° |
| 2026-04-26 00:24 | 40.28868 | 38.05725 | 34120 ft | 425 kts | 241° |
| 2026-04-26 00:25 | 40.26000 | 37.98978 | 34117 ft | 424 kts | 241° |
| 2026-04-26 00:25 | 40.23154 | 37.92275 | 34119 ft | 425 kts | 241° |
| 2026-04-26 00:26 | 40.20282 | 37.85518 | 34116 ft | 425 kts | 241° |
| 2026-04-26 00:26 | 40.17413 | 37.78779 | 34117 ft | 426 kts | 241° |
| 2026-04-26 00:27 | 40.14525 | 37.72013 | 34116 ft | 426 kts | 241° |
| 2026-04-26 00:27 | 40.11649 | 37.65282 | 34116 ft | 426 kts | 241° |
| 2026-04-26 00:28 | 40.08756 | 37.58535 | 34112 ft | 427 kts | 241° |
| 2026-04-26 00:28 | 40.05870 | 37.51790 | 34112 ft | 427 kts | 241° |
| 2026-04-26 00:29 | 40.02982 | 37.45031 | 34112 ft | 427 kts | 241° |
| 2026-04-26 00:29 | 40.00089 | 37.38269 | 34101 ft | 427 kts | 241° |
| 2026-04-26 00:30 | 39.97211 | 37.31558 | 34108 ft | 426 kts | 240° |
| 2026-04-26 00:30 | 39.94323 | 37.24840 | 34112 ft | 427 kts | 240° |
| 2026-04-26 00:31 | 39.91421 | 37.18099 | 34104 ft | 428 kts | 240° |
| 2026-04-26 00:31 | 39.88514 | 37.11362 | 34110 ft | 428 kts | 240° |
| 2026-04-26 00:32 | 39.85598 | 37.04616 | 34090 ft | 428 kts | 240° |
| 2026-04-26 00:32 | 39.81186 | 36.94575 | 34071 ft | 428 kts | 238° |
| 2026-04-26 00:33 | 39.77779 | 36.88227 | 34061 ft | 429 kts | 232° |
| 2026-04-26 00:33 | 39.73850 | 36.82343 | 34061 ft | 430 kts | 227° |
| 2026-04-26 00:34 | 39.69777 | 36.76732 | 34079 ft | 429 kts | 227° |
| 2026-04-26 00:34 | 39.65668 | 36.71081 | 34091 ft | 430 kts | 227° |
| 2026-04-26 00:35 | 39.61562 | 36.65444 | 34090 ft | 429 kts | 227° |
| 2026-04-26 00:35 | 39.57467 | 36.59835 | 34091 ft | 429 kts | 227° |
| 2026-04-26 00:36 | 39.53357 | 36.54214 | 34095 ft | 429 kts | 227° |
| 2026-04-26 00:36 | 39.49255 | 36.48622 | 34096 ft | 429 kts | 227° |
| 2026-04-26 00:37 | 39.45140 | 36.43035 | 34101 ft | 430 kts | 227° |
| 2026-04-26 00:37 | 39.41006 | 36.37428 | 34096 ft | 431 kts | 227° |
| 2026-04-26 00:38 | 39.36872 | 36.31829 | 34094 ft | 431 kts | 226° |
| 2026-04-26 00:38 | 39.32703 | 36.26189 | 34091 ft | 432 kts | 226° |
| 2026-04-26 00:39 | 39.28550 | 36.20584 | 34093 ft | 432 kts | 226° |
| 2026-04-26 00:39 | 39.24415 | 36.15008 | 34086 ft | 431 kts | 226° |
| 2026-04-26 00:40 | 39.20284 | 36.09446 | 34078 ft | 431 kts | 226° |
| 2026-04-26 00:40 | 39.16121 | 36.03855 | 34075 ft | 431 kts | 226° |
| 2026-04-26 00:41 | 39.11892 | 35.98436 | 34082 ft | 432 kts | 224° |
| 2026-04-26 00:41 | 39.07565 | 35.93086 | 34080 ft | 433 kts | 224° |
| 2026-04-26 00:42 | 39.03229 | 35.87704 | 34076 ft | 433 kts | 224° |
| 2026-04-26 00:42 | 38.98880 | 35.82295 | 34075 ft | 433 kts | 224° |
| 2026-04-26 00:43 | 38.94571 | 35.76947 | 34080 ft | 433 kts | 224° |
| 2026-04-26 00:43 | 38.90317 | 35.71518 | 34078 ft | 432 kts | 226° |
| 2026-04-26 00:44 | 38.86063 | 35.66012 | 34066 ft | 432 kts | 226° |
| 2026-04-26 00:44 | 38.81830 | 35.60551 | 34060 ft | 432 kts | 225° |
| 2026-04-26 00:45 | 38.77603 | 35.55116 | 34056 ft | 432 kts | 225° |
| 2026-04-26 00:45 | 38.73342 | 35.49649 | 34045 ft | 432 kts | 225° |
| 2026-04-26 00:46 | 38.69096 | 35.44211 | 34049 ft | 432 kts | 225° |
| 2026-04-26 00:46 | 38.64876 | 35.38814 | 34055 ft | 432 kts | 225° |
| 2026-04-26 00:47 | 38.60596 | 35.33349 | 34067 ft | 432 kts | 225° |
| 2026-04-26 00:47 | 38.56376 | 35.27971 | 34070 ft | 432 kts | 225° |
| 2026-04-26 00:48 | 38.52065 | 35.22616 | 34068 ft | 432 kts | 222° |
| 2026-04-26 00:48 | 38.47488 | 35.17644 | 34080 ft | 431 kts | 220° |
| 2026-04-26 00:49 | 38.42939 | 35.12748 | 34085 ft | 431 kts | 220° |
| 2026-04-26 00:49 | 38.38361 | 35.07835 | 34097 ft | 431 kts | 220° |
| 2026-04-26 00:50 | 38.33947 | 35.02674 | 34086 ft | 431 kts | 223° |
| 2026-04-26 00:50 | 38.29573 | 34.97425 | 34088 ft | 432 kts | 223° |
| 2026-04-26 00:51 | 38.25233 | 34.92219 | 34088 ft | 432 kts | 224° |
| 2026-04-26 00:51 | 38.20863 | 34.86968 | 34090 ft | 431 kts | 224° |
| 2026-04-26 00:52 | 38.16499 | 34.81729 | 34092 ft | 431 kts | 224° |
| 2026-04-26 00:52 | 38.12172 | 34.76541 | 34098 ft | 431 kts | 224° |
| 2026-04-26 00:53 | 38.07816 | 34.71326 | 34093 ft | 431 kts | 224° |
| 2026-04-26 00:53 | 38.03462 | 34.66121 | 34104 ft | 432 kts | 224° |
| 2026-04-26 00:54 | 37.99071 | 34.60881 | 34100 ft | 432 kts | 223° |
| 2026-04-26 00:54 | 37.94719 | 34.55697 | 34099 ft | 432 kts | 224° |
| 2026-04-26 00:55 | 37.90353 | 34.50508 | 34095 ft | 431 kts | 224° |
| 2026-04-26 00:55 | 37.85970 | 34.45304 | 34097 ft | 431 kts | 224° |
| 2026-04-26 00:56 | 37.81611 | 34.40131 | 34090 ft | 432 kts | 224° |
| 2026-04-26 00:56 | 37.77222 | 34.34927 | 34071 ft | 432 kts | 223° |
| 2026-04-26 00:57 | 37.72837 | 34.29736 | 34072 ft | 433 kts | 223° |
| 2026-04-26 00:57 | 37.68465 | 34.24569 | 34069 ft | 433 kts | 223° |
| 2026-04-26 00:58 | 37.64063 | 34.19374 | 34073 ft | 432 kts | 223° |
| 2026-04-26 00:58 | 37.59691 | 34.14222 | 34077 ft | 431 kts | 223° |
| 2026-04-26 00:59 | 37.55322 | 34.09085 | 34079 ft | 431 kts | 223° |
| 2026-04-26 00:59 | 37.50935 | 34.03931 | 34077 ft | 432 kts | 223° |
| 2026-04-26 01:00 | 37.46536 | 33.98772 | 34080 ft | 432 kts | 223° |
| 2026-04-26 01:00 | 37.42135 | 33.93630 | 34089 ft | 432 kts | 223° |
| 2026-04-26 01:01 | 37.37734 | 33.88511 | 34095 ft | 432 kts | 223° |
| 2026-04-26 01:01 | 37.33349 | 33.83414 | 34094 ft | 432 kts | 223° |
| 2026-04-26 01:02 | 37.28937 | 33.78291 | 34090 ft | 432 kts | 223° |
| 2026-04-26 01:02 | 37.24550 | 33.73203 | 34095 ft | 430 kts | 223° |
| 2026-04-26 01:03 | 37.20144 | 33.68103 | 34093 ft | 431 kts | 223° |
| 2026-04-26 01:03 | 37.15739 | 33.63009 | 34093 ft | 431 kts | 223° |
| 2026-04-26 01:04 | 37.11320 | 33.57908 | 34094 ft | 432 kts | 223° |
| 2026-04-26 01:04 | 37.06927 | 33.52843 | 34083 ft | 431 kts | 223° |
| 2026-04-26 01:05 | 37.02515 | 33.47767 | 34079 ft | 431 kts | 223° |
| 2026-04-26 01:05 | 36.98116 | 33.42713 | 34074 ft | 430 kts | 223° |
| 2026-04-26 01:06 | 36.93702 | 33.37650 | 34074 ft | 429 kts | 223° |
| 2026-04-26 01:06 | 36.89937 | 33.31881 | 34054 ft | 430 kts | 238° |
| 2026-04-26 01:07 | 36.87535 | 33.25034 | 34047 ft | 434 kts | 252° |
| 2026-04-26 01:07 | 36.86677 | 33.17594 | 34040 ft | 438 kts | 267° |
| 2026-04-26 01:08 | 36.86884 | 33.09994 | 34041 ft | 440 kts | 270° |
| 2026-04-26 01:08 | 36.87157 | 33.02377 | 34043 ft | 440 kts | 270° |
| 2026-04-26 01:09 | 36.87408 | 32.94750 | 34054 ft | 439 kts | 270° |
| 2026-04-26 01:09 | 36.87646 | 32.87161 | 34049 ft | 439 kts | 270° |
| 2026-04-26 01:10 | 36.87875 | 32.79536 | 34050 ft | 440 kts | 270° |
| 2026-04-26 01:10 | 36.88101 | 32.71914 | 34059 ft | 440 kts | 270° |
| 2026-04-26 01:11 | 36.88323 | 32.64311 | 34063 ft | 441 kts | 270° |
| 2026-04-26 01:11 | 36.88541 | 32.56667 | 34073 ft | 441 kts | 270° |
| 2026-04-26 01:12 | 36.88751 | 32.49016 | 34084 ft | 441 kts | 270° |
| 2026-04-26 01:12 | 36.88956 | 32.41371 | 34088 ft | 441 kts | 270° |
| 2026-04-26 01:13 | 36.89154 | 32.33739 | 34081 ft | 442 kts | 269° |
| 2026-04-26 01:13 | 36.89348 | 32.26059 | 34084 ft | 442 kts | 270° |
| 2026-04-26 01:14 | 36.89538 | 32.18433 | 34091 ft | 442 kts | 270° |
| 2026-04-26 01:14 | 36.89725 | 32.10733 | 34101 ft | 442 kts | 270° |
| 2026-04-26 01:15 | 36.89904 | 32.03115 | 34095 ft | 442 kts | 270° |
| 2026-04-26 01:15 | 36.90080 | 31.95456 | 34086 ft | 443 kts | 270° |
| 2026-04-26 01:16 | 36.90252 | 31.87749 | 34095 ft | 443 kts | 270° |
| 2026-04-26 01:16 | 36.90417 | 31.80104 | 34075 ft | 443 kts | 270° |
| 2026-04-26 01:17 | 36.90486 | 31.72432 | 34044 ft | 433 kts | 266° |
| 2026-04-26 01:17 | 36.90382 | 31.68777 | 34035 ft | 417 kts | 266° |
| 2026-04-26 01:17 | 36.90261 | 31.65211 | 34036 ft | 411 kts | 266° |
| 2026-04-26 01:18 | 36.90020 | 31.58098 | 34022 ft | 411 kts | 266° |
| 2026-04-26 01:18 | 36.89785 | 31.50969 | 34027 ft | 410 kts | 266° |
| 2026-04-26 01:19 | 36.89553 | 31.43856 | 34015 ft | 411 kts | 266° |
| 2026-04-26 01:19 | 36.89039 | 31.36777 | 33990 ft | 411 kts | 261° |
| 2026-04-26 01:20 | 36.88331 | 31.29712 | 33953 ft | 411 kts | 261° |
| 2026-04-26 01:20 | 36.87725 | 31.22643 | 33919 ft | 413 kts | 268° |
| 2026-04-26 01:21 | 36.88264 | 31.15497 | 33909 ft | 415 kts | 275° |
| 2026-04-26 01:21 | 36.88956 | 31.08375 | 33901 ft | 414 kts | 275° |
| 2026-04-26 01:22 | 36.89614 | 31.01205 | 33900 ft | 414 kts | 275° |
| 2026-04-26 01:22 | 36.89982 | 30.94129 | 33854 ft | 399 kts | 258° |
| 2026-04-26 01:23 | 36.89029 | 30.91003 | 33871 ft | 386 kts | 234° |
| 2026-04-26 01:23 | 36.87157 | 30.88667 | 33886 ft | 383 kts | 211° |
| 2026-04-26 01:23 | 36.84681 | 30.87501 | 33895 ft | 384 kts | 187° |
| 2026-04-26 01:23 | 36.82010 | 30.87718 | 33898 ft | 386 kts | 163° |
| 2026-04-26 01:24 | 36.79608 | 30.89256 | 33924 ft | 389 kts | 146° |
| 2026-04-26 01:24 | 36.77375 | 30.91091 | 33899 ft | 388 kts | 155° |
| 2026-04-26 01:24 | 36.74816 | 30.92140 | 33898 ft | 385 kts | 173° |
| 2026-04-26 01:24 | 36.72153 | 30.92167 | 33901 ft | 384 kts | 190° |
| 2026-04-26 01:25 | 36.66969 | 30.90599 | 33898 ft | 385 kts | 191° |
| 2026-04-26 01:25 | 36.61592 | 30.89632 | 33903 ft | 396 kts | 188° |
| 2026-04-26 01:26 | 36.56030 | 30.88774 | 33895 ft | 408 kts | 187° |
| 2026-04-26 01:26 | 36.50337 | 30.87891 | 33881 ft | 419 kts | 187° |
| 2026-04-26 01:27 | 36.44488 | 30.86979 | 33886 ft | 429 kts | 187° |
| 2026-04-26 01:27 | 36.38518 | 30.86049 | 33877 ft | 435 kts | 187° |
| 2026-04-26 01:28 | 36.32492 | 30.85118 | 33880 ft | 437 kts | 187° |
| 2026-04-26 01:28 | 36.26477 | 30.84199 | 33880 ft | 438 kts | 187° |
| 2026-04-26 01:29 | 36.20399 | 30.83277 | 33876 ft | 438 kts | 187° |
| 2026-04-26 01:29 | 36.14376 | 30.82362 | 33874 ft | 437 kts | 187° |
| 2026-04-26 01:30 | 36.08326 | 30.81435 | 33876 ft | 438 kts | 187° |
| 2026-04-26 01:30 | 36.02290 | 30.80495 | 33871 ft | 438 kts | 188° |
| 2026-04-26 01:31 | 35.96263 | 30.79562 | 33870 ft | 437 kts | 188° |
| 2026-04-26 01:31 | 35.90272 | 30.78657 | 33864 ft | 435 kts | 187° |
| 2026-04-26 01:32 | 35.84254 | 30.77763 | 33870 ft | 436 kts | 187° |
| 2026-04-26 01:32 | 35.78241 | 30.76874 | 33867 ft | 435 kts | 187° |
| 2026-04-26 01:33 | 35.72216 | 30.75993 | 33865 ft | 435 kts | 187° |
| 2026-04-26 01:33 | 35.66214 | 30.75121 | 33867 ft | 434 kts | 188° |
| 2026-04-26 01:34 | 35.60222 | 30.74264 | 33863 ft | 433 kts | 187° |
| 2026-04-26 01:34 | 35.54261 | 30.73419 | 33869 ft | 432 kts | 188° |
| 2026-04-26 01:35 | 35.48305 | 30.72591 | 33871 ft | 430 kts | 188° |
| 2026-04-26 01:35 | 35.42331 | 30.71770 | 33868 ft | 430 kts | 187° |
| 2026-04-26 01:36 | 35.36395 | 30.70954 | 33864 ft | 430 kts | 188° |
| 2026-04-26 01:37 | 35.27479 | 30.69746 | 33867 ft | 429 kts | 188° |
| 2026-04-26 01:37 | 35.21567 | 30.68944 | 33867 ft | 428 kts | 188° |
| 2026-04-26 01:38 | 35.15645 | 30.68149 | 33867 ft | 428 kts | 188° |
| 2026-04-26 01:38 | 35.09716 | 30.67364 | 33862 ft | 428 kts | 188° |
| 2026-04-26 01:39 | 35.03794 | 30.66603 | 33870 ft | 427 kts | 188° |
| 2026-04-26 01:39 | 34.97883 | 30.65861 | 33861 ft | 427 kts | 188° |
| 2026-04-26 01:40 | 34.92010 | 30.65138 | 33864 ft | 426 kts | 188° |
| 2026-04-26 01:40 | 34.86088 | 30.64421 | 33873 ft | 426 kts | 188° |
| 2026-04-26 01:41 | 34.80214 | 30.63706 | 33875 ft | 426 kts | 188° |
| 2026-04-26 01:41 | 34.74320 | 30.63008 | 33865 ft | 425 kts | 188° |
| 2026-04-26 01:42 | 34.68415 | 30.62323 | 33857 ft | 425 kts | 188° |
| 2026-04-26 01:42 | 34.62516 | 30.61637 | 33858 ft | 425 kts | 188° |
| 2026-04-26 01:43 | 34.56662 | 30.60977 | 33862 ft | 424 kts | 188° |
| 2026-04-26 01:43 | 34.50790 | 30.60340 | 33871 ft | 425 kts | 188° |
| 2026-04-26 01:44 | 34.44884 | 30.59720 | 33869 ft | 426 kts | 188° |
| 2026-04-26 01:44 | 34.38996 | 30.59115 | 33865 ft | 426 kts | 188° |
| 2026-04-26 01:45 | 34.33077 | 30.58512 | 33872 ft | 425 kts | 187° |
| 2026-04-26 01:45 | 34.27187 | 30.57914 | 33861 ft | 426 kts | 188° |
| 2026-04-26 01:46 | 34.21296 | 30.57336 | 33877 ft | 425 kts | 188° |
| 2026-04-26 01:46 | 34.15375 | 30.56766 | 33862 ft | 425 kts | 188° |
| 2026-04-26 01:47 | 34.09499 | 30.56232 | 33864 ft | 425 kts | 188° |
| 2026-04-26 01:47 | 34.03595 | 30.55726 | 33864 ft | 425 kts | 188° |
| 2026-04-26 01:48 | 33.97695 | 30.55237 | 33858 ft | 426 kts | 188° |
| 2026-04-26 01:48 | 33.91782 | 30.54758 | 33859 ft | 426 kts | 188° |
| 2026-04-26 01:49 | 33.85873 | 30.54277 | 33865 ft | 426 kts | 188° |
| 2026-04-26 01:49 | 33.79963 | 30.53812 | 33877 ft | 425 kts | 188° |
| 2026-04-26 01:50 | 33.74042 | 30.53366 | 33869 ft | 425 kts | 188° |
| 2026-04-26 01:50 | 33.68134 | 30.52926 | 33867 ft | 425 kts | 188° |
| 2026-04-26 01:51 | 33.62237 | 30.52509 | 33868 ft | 425 kts | 188° |
| 2026-04-26 01:51 | 33.56333 | 30.52121 | 33870 ft | 425 kts | 188° |
| 2026-04-26 01:52 | 33.50413 | 30.51764 | 33861 ft | 426 kts | 188° |
| 2026-04-26 01:52 | 33.44491 | 30.51429 | 33860 ft | 426 kts | 188° |
| 2026-04-26 01:53 | 33.38600 | 30.51115 | 33878 ft | 426 kts | 188° |
| 2026-04-26 01:53 | 33.32672 | 30.50806 | 33865 ft | 426 kts | 188° |
| 2026-04-26 01:54 | 33.26761 | 30.50512 | 33868 ft | 425 kts | 188° |
| 2026-04-26 01:54 | 33.20845 | 30.50225 | 33876 ft | 425 kts | 188° |
| 2026-04-26 01:55 | 33.14949 | 30.49962 | 33863 ft | 425 kts | 188° |
| 2026-04-26 01:55 | 33.09023 | 30.49715 | 33867 ft | 424 kts | 188° |
| 2026-04-26 01:56 | 33.03139 | 30.49491 | 33868 ft | 425 kts | 188° |
| 2026-04-26 01:56 | 32.97229 | 30.49289 | 33867 ft | 426 kts | 188° |
| 2026-04-26 01:57 | 32.91279 | 30.49110 | 33865 ft | 427 kts | 188° |
| 2026-04-26 01:57 | 32.85349 | 30.48953 | 33866 ft | 427 kts | 188° |
| 2026-04-26 01:58 | 32.79404 | 30.48813 | 33873 ft | 426 kts | 188° |
| 2026-04-26 01:58 | 32.73488 | 30.48697 | 33871 ft | 426 kts | 188° |
| 2026-04-26 01:59 | 32.67578 | 30.48604 | 33888 ft | 426 kts | 188° |
| 2026-04-26 01:59 | 32.61631 | 30.48525 | 33888 ft | 426 kts | 188° |
| 2026-04-26 02:00 | 32.55721 | 30.48463 | 33894 ft | 426 kts | 188° |
| 2026-04-26 02:00 | 32.49772 | 30.48418 | 33892 ft | 426 kts | 188° |
| 2026-04-26 02:01 | 32.43844 | 30.48392 | 33893 ft | 428 kts | 188° |
| 2026-04-26 02:01 | 32.37863 | 30.48403 | 33902 ft | 429 kts | 188° |
| 2026-04-26 02:02 | 32.31919 | 30.48417 | 33895 ft | 429 kts | 188° |
| 2026-04-26 02:02 | 32.25951 | 30.48429 | 33898 ft | 428 kts | 188° |
| 2026-04-26 02:03 | 32.20013 | 30.48468 | 33905 ft | 428 kts | 188° |
| 2026-04-26 02:03 | 32.14044 | 30.48521 | 33898 ft | 428 kts | 188° |
| 2026-04-26 02:04 | 32.08071 | 30.48593 | 33906 ft | 428 kts | 188° |
| 2026-04-26 02:04 | 32.02140 | 30.48683 | 33892 ft | 429 kts | 188° |
| 2026-04-26 02:05 | 31.96163 | 30.48797 | 33899 ft | 430 kts | 188° |
| 2026-04-26 02:05 | 31.90164 | 30.48920 | 33896 ft | 430 kts | 188° |
| 2026-04-26 02:06 | 31.84177 | 30.49055 | 33896 ft | 431 kts | 188° |
| 2026-04-26 02:06 | 31.78184 | 30.49207 | 33897 ft | 430 kts | 188° |
| 2026-04-26 02:07 | 31.72213 | 30.49374 | 33903 ft | 431 kts | 188° |
| 2026-04-26 02:07 | 31.66192 | 30.49566 | 33907 ft | 431 kts | 188° |
| 2026-04-26 02:08 | 31.60212 | 30.49765 | 33896 ft | 430 kts | 188° |
| 2026-04-26 02:08 | 31.54218 | 30.49981 | 33900 ft | 431 kts | 188° |
| 2026-04-26 02:09 | 31.48251 | 30.50214 | 33905 ft | 431 kts | 188° |
| 2026-04-26 02:09 | 31.42238 | 30.50461 | 33939 ft | 431 kts | 188° |
| 2026-04-26 02:10 | 31.36266 | 30.50730 | 33917 ft | 429 kts | 188° |
| 2026-04-26 02:10 | 31.30263 | 30.51011 | 33912 ft | 431 kts | 188° |
| 2026-04-26 02:11 | 31.24263 | 30.51291 | 33914 ft | 431 kts | 188° |
| 2026-04-26 02:11 | 31.18297 | 30.51587 | 33917 ft | 431 kts | 188° |
| 2026-04-26 02:12 | 31.12277 | 30.51898 | 33922 ft | 431 kts | 188° |
| 2026-04-26 02:12 | 31.06300 | 30.52215 | 33925 ft | 431 kts | 188° |
| 2026-04-26 02:13 | 31.00293 | 30.52547 | 33929 ft | 432 kts | 188° |
| 2026-04-26 02:13 | 30.94267 | 30.52893 | 33923 ft | 433 kts | 188° |
| 2026-04-26 02:14 | 30.88264 | 30.53237 | 33929 ft | 431 kts | 188° |
| 2026-04-26 02:14 | 30.82256 | 30.53601 | 33918 ft | 433 kts | 188° |
| 2026-04-26 02:15 | 30.76261 | 30.53984 | 33917 ft | 432 kts | 188° |
| 2026-04-26 02:15 | 30.70208 | 30.54389 | 33924 ft | 433 kts | 188° |
| 2026-04-26 02:16 | 30.64214 | 30.54799 | 33921 ft | 434 kts | 188° |
| 2026-04-26 02:16 | 30.58180 | 30.55216 | 33918 ft | 434 kts | 188° |
| 2026-04-26 02:17 | 30.52130 | 30.55644 | 33933 ft | 433 kts | 188° |
| 2026-04-26 02:17 | 30.46103 | 30.56081 | 33924 ft | 434 kts | 188° |
| 2026-04-26 02:18 | 30.40092 | 30.56525 | 33924 ft | 434 kts | 188° |
| 2026-04-26 02:18 | 30.34048 | 30.56980 | 33924 ft | 436 kts | 188° |
| 2026-04-26 02:19 | 30.27981 | 30.57459 | 33921 ft | 437 kts | 188° |
| 2026-04-26 02:19 | 30.21915 | 30.57944 | 33926 ft | 435 kts | 188° |
| 2026-04-26 02:20 | 30.15852 | 30.58442 | 33932 ft | 437 kts | 188° |
| 2026-04-26 02:20 | 30.09807 | 30.58945 | 33927 ft | 436 kts | 187° |
| 2026-04-26 02:21 | 30.03725 | 30.59467 | 33916 ft | 437 kts | 188° |
| 2026-04-26 02:21 | 29.97661 | 30.59997 | 33918 ft | 437 kts | 188° |
| 2026-04-26 02:22 | 29.91613 | 30.60536 | 33932 ft | 437 kts | 188° |
| 2026-04-26 02:22 | 29.85500 | 30.61083 | 33926 ft | 438 kts | 188° |
| 2026-04-26 02:23 | 29.79423 | 30.61646 | 33925 ft | 438 kts | 187° |
| 2026-04-26 02:23 | 29.73334 | 30.62214 | 33924 ft | 439 kts | 188° |
| 2026-04-26 02:24 | 29.67244 | 30.62782 | 33942 ft | 437 kts | 188° |
| 2026-04-26 02:24 | 29.61164 | 30.63357 | 33922 ft | 439 kts | 187° |
| 2026-04-26 02:25 | 29.55074 | 30.63933 | 33924 ft | 438 kts | 188° |
| 2026-04-26 02:25 | 29.48973 | 30.64514 | 33922 ft | 440 kts | 188° |
| 2026-04-26 02:26 | 29.42909 | 30.65101 | 33926 ft | 438 kts | 188° |
| 2026-04-26 02:26 | 29.36790 | 30.65707 | 33931 ft | 440 kts | 187° |
| 2026-04-26 02:27 | 29.30730 | 30.66303 | 33928 ft | 439 kts | 188° |
| 2026-04-26 02:27 | 29.24640 | 30.66913 | 33934 ft | 439 kts | 187° |
| 2026-04-26 02:28 | 29.18556 | 30.67515 | 33927 ft | 438 kts | 188° |
| 2026-04-26 02:28 | 29.12465 | 30.68133 | 33928 ft | 440 kts | 187° |
| 2026-04-26 02:29 | 29.06345 | 30.68746 | 33935 ft | 441 kts | 188° |
| 2026-04-26 02:29 | 29.00238 | 30.69369 | 33941 ft | 440 kts | 188° |
| 2026-04-26 02:30 | 28.94159 | 30.69986 | 33936 ft | 440 kts | 187° |
| 2026-04-26 02:30 | 28.88050 | 30.70610 | 33941 ft | 441 kts | 187° |
| 2026-04-26 02:31 | 28.81915 | 30.71244 | 33942 ft | 439 kts | 187° |
| 2026-04-26 02:31 | 28.75837 | 30.71875 | 33937 ft | 438 kts | 187° |
| 2026-04-26 02:32 | 28.69759 | 30.72512 | 33986 ft | 439 kts | 187° |
| 2026-04-26 02:32 | 28.63670 | 30.73142 | 33789 ft | 441 kts | 188° |
| 2026-04-26 02:32 | 28.60591 | 30.73464 | 33894 ft | 442 kts | 187° |
| 2026-04-26 02:33 | 28.57546 | 30.73779 | 33965 ft | 442 kts | 188° |
| 2026-04-26 02:33 | 28.51434 | 30.74413 | 33940 ft | 440 kts | 188° |
| 2026-04-26 02:34 | 28.45290 | 30.75059 | 33950 ft | 442 kts | 187° |
| 2026-04-26 02:34 | 28.39185 | 30.75698 | 33945 ft | 441 kts | 187° |
| 2026-04-26 02:35 | 28.33086 | 30.76340 | 33898 ft | 440 kts | 187° |
| 2026-04-26 02:35 | 28.26969 | 30.76983 | 33974 ft | 443 kts | 187° |
| 2026-04-26 02:36 | 28.20818 | 30.77630 | 33933 ft | 442 kts | 187° |
| 2026-04-26 02:36 | 28.14685 | 30.78276 | 33937 ft | 441 kts | 187° |
| 2026-04-26 02:37 | 28.08595 | 30.78920 | 33936 ft | 440 kts | 187° |
| 2026-04-26 02:37 | 28.02504 | 30.79563 | 33929 ft | 440 kts | 187° |
| 2026-04-26 02:37 | 27.99438 | 30.79887 | 34049 ft | 440 kts | 187° |
| 2026-04-26 02:38 | 27.96383 | 30.80209 | 33982 ft | 439 kts | 188° |
| 2026-04-26 02:38 | 27.90280 | 30.80861 | 33947 ft | 441 kts | 187° |
| 2026-04-26 02:39 | 27.84188 | 30.81514 | 33939 ft | 440 kts | 188° |
| 2026-04-26 02:39 | 27.78061 | 30.82172 | 33943 ft | 440 kts | 187° |
| 2026-04-26 02:40 | 27.71965 | 30.82821 | 33944 ft | 442 kts | 187° |
| 2026-04-26 02:40 | 27.65837 | 30.83474 | 33943 ft | 439 kts | 187° |